createdAt,value
2018-06-24T00:00:20.410Z,21.25
2018-06-24T00:01:20.256Z,21.26
2018-06-24T00:02:20.364Z,21.25
2018-06-24T00:03:20.503Z,21.26
2018-06-24T00:04:20.332Z,21.23
2018-06-24T00:05:20.232Z,21.24
2018-06-24T00:06:20.469Z,21.23
2018-06-24T00:07:20.441Z,21.25
2018-06-24T00:08:20.601Z,21.25
2018-06-24T00:09:20.368Z,21.25
2018-06-24T00:10:20.372Z,21.26
2018-06-24T00:11:20.414Z,21.24
2018-06-24T00:12:20.307Z,21.25
2018-06-24T00:13:20.548Z,21.24
2018-06-24T00:14:20.326Z,21.25
2018-06-24T00:15:20.496Z,21.22
2018-06-24T00:16:20.366Z,21.24
2018-06-24T00:17:20.307Z,21.24
2018-06-24T00:18:20.311Z,21.24
2018-06-24T00:19:20.220Z,21.23
2018-06-24T00:20:20.290Z,21.24
2018-06-24T00:21:20.272Z,21.24
2018-06-24T00:22:20.186Z,21.23
2018-06-24T00:23:20.228Z,21.25
2018-06-24T00:24:20.224Z,21.22
2018-06-24T00:25:20.286Z,21.22
2018-06-24T00:26:20.399Z,21.25
2018-06-24T00:27:20.307Z,21.25
2018-06-24T00:28:20.413Z,21.25
2018-06-24T00:29:20.274Z,21.22
2018-06-24T00:30:20.536Z,21.23
2018-06-24T00:31:20.303Z,21.24
2018-06-24T00:32:20.223Z,21.21
2018-06-24T00:33:20.570Z,21.23
2018-06-24T00:34:20.435Z,21.23
2018-06-24T00:35:20.745Z,21.24
2018-06-24T00:36:20.561Z,21.23
2018-06-24T00:37:20.254Z,21.22
2018-06-24T00:38:20.545Z,21.22
2018-06-24T00:39:20.282Z,21.21
2018-06-24T00:40:20.546Z,21.21
2018-06-24T00:41:20.337Z,21.21
2018-06-24T00:42:20.313Z,21.23
2018-06-24T00:43:20.416Z,21.22
2018-06-24T00:44:20.481Z,21.22
2018-06-24T00:45:20.279Z,21.21
2018-06-24T00:46:20.274Z,21.23
2018-06-24T00:47:20.324Z,21.24
2018-06-24T00:48:20.337Z,21.23
2018-06-24T00:49:20.336Z,21.21
2018-06-24T00:50:20.330Z,21.21
2018-06-24T00:51:20.457Z,21.21
2018-06-24T00:52:20.314Z,21.2
2018-06-24T00:53:20.178Z,21.21
2018-06-24T00:54:20.364Z,21.2
2018-06-24T00:55:20.208Z,21.21
2018-06-24T00:56:20.363Z,21.23
2018-06-24T00:57:20.282Z,21.22
2018-06-24T00:58:20.459Z,21.19
2018-06-24T00:59:20.444Z,21.22
2018-06-24T01:00:20.279Z,21.22
2018-06-24T01:01:20.349Z,21.21
2018-06-24T01:02:20.257Z,21.19
2018-06-24T01:03:20.378Z,21.18
2018-06-24T01:04:20.184Z,21.21
2018-06-24T01:05:20.396Z,21.19
2018-06-24T01:06:20.221Z,21.2
2018-06-24T01:07:20.436Z,21.2
2018-06-24T01:08:20.265Z,21.21
2018-06-24T01:09:20.361Z,21.21
2018-06-24T01:10:20.529Z,21.2
2018-06-24T01:11:20.492Z,21.21
2018-06-24T01:12:20.385Z,21.2
2018-06-24T01:13:20.166Z,21.21
2018-06-24T01:14:20.440Z,21.2
2018-06-24T01:15:20.301Z,21.2
2018-06-24T01:16:20.544Z,21.2
2018-06-24T01:17:20.216Z,21.19
2018-06-24T01:18:20.279Z,21.2
2018-06-24T01:19:20.534Z,21.21
2018-06-24T01:20:20.535Z,21.22
2018-06-24T01:21:20.208Z,21.18
2018-06-24T01:22:20.260Z,21.18
2018-06-24T01:23:20.251Z,21.19
2018-06-24T01:24:20.415Z,21.21
2018-06-24T01:25:20.279Z,21.21
2018-06-24T01:26:20.536Z,21.22
2018-06-24T01:27:20.262Z,21.19
2018-06-24T01:28:20.531Z,21.2
2018-06-24T01:29:20.334Z,21.18
2018-06-24T01:30:20.493Z,21.2
2018-06-24T01:31:20.204Z,21.21
2018-06-24T01:32:20.324Z,21.19
2018-06-24T01:33:20.371Z,21.2
2018-06-24T01:34:20.300Z,21.2
2018-06-24T01:35:20.326Z,21.19
2018-06-24T01:36:20.395Z,21.2
2018-06-24T01:37:20.274Z,21.17
2018-06-24T01:38:20.399Z,21.19
2018-06-24T01:39:20.197Z,21.18
2018-06-24T01:40:20.211Z,21.19
2018-06-24T01:41:20.368Z,21.18
2018-06-24T01:42:20.251Z,21.17
2018-06-24T01:43:20.359Z,21.18
2018-06-24T01:44:20.501Z,21.18
2018-06-24T01:45:20.345Z,21.18
2018-06-24T01:46:20.308Z,21.19
2018-06-24T01:47:20.391Z,21.17
2018-06-24T01:48:20.403Z,21.15
2018-06-24T01:49:20.316Z,21.17
2018-06-24T01:50:20.165Z,21.15
2018-06-24T01:51:20.251Z,21.17
2018-06-24T01:52:20.253Z,21.17
2018-06-24T01:53:20.392Z,21.17
2018-06-24T01:54:20.577Z,21.18
2018-06-24T01:55:20.214Z,21.17
2018-06-24T01:56:20.332Z,21.18
2018-06-24T01:57:20.284Z,21.17
2018-06-24T01:58:30.316Z,21.17
2018-06-24T01:59:20.390Z,21.18
2018-06-24T02:00:20.223Z,21.17
2018-06-24T02:01:20.295Z,21.16
2018-06-24T02:02:20.337Z,21.16
2018-06-24T02:03:20.415Z,21.17
2018-06-24T02:04:20.355Z,21.16
2018-06-24T02:05:20.348Z,21.17
2018-06-24T02:06:20.525Z,21.17
2018-06-24T02:07:20.258Z,21.15
2018-06-24T02:08:20.427Z,21.15
2018-06-24T02:09:20.353Z,21.16
2018-06-24T02:10:20.359Z,21.16
2018-06-24T02:11:20.383Z,21.16
2018-06-24T02:12:20.245Z,21.17
2018-06-24T02:13:20.513Z,21.15
2018-06-24T02:14:20.531Z,21.16
2018-06-24T02:15:20.377Z,21.16
2018-06-24T02:16:20.255Z,21.15
2018-06-24T02:17:20.448Z,21.15
2018-06-24T02:18:20.530Z,21.16
2018-06-24T02:19:20.541Z,21.16
2018-06-24T02:20:20.856Z,21.14
2018-06-24T02:21:20.431Z,21.12
2018-06-24T02:22:20.410Z,21.15
2018-06-24T02:23:20.364Z,21.16
2018-06-24T02:24:20.257Z,21.15
2018-06-24T02:25:20.281Z,21.16
2018-06-24T02:26:20.659Z,21.17
2018-06-24T02:27:20.370Z,21.17
2018-06-24T02:28:20.518Z,21.17
2018-06-24T02:29:20.216Z,21.15
2018-06-24T02:30:20.520Z,21.16
2018-06-24T02:31:20.346Z,21.14
2018-06-24T02:32:20.405Z,21.15
2018-06-24T02:33:20.381Z,21.13
2018-06-24T02:34:20.329Z,21.12
2018-06-24T02:35:20.577Z,21.13
2018-06-24T02:36:21.033Z,21.13
2018-06-24T02:37:20.224Z,21.17
2018-06-24T02:38:20.424Z,21.14
2018-06-24T02:39:20.283Z,21.15
2018-06-24T02:40:20.587Z,21.15
2018-06-24T02:41:20.246Z,21.14
2018-06-24T02:42:20.554Z,21.13
2018-06-24T02:43:20.204Z,21.13
2018-06-24T02:44:20.365Z,21.14
2018-06-24T02:45:20.545Z,21.14
2018-06-24T02:46:20.613Z,21.12
2018-06-24T02:47:20.523Z,21.14
2018-06-24T02:48:20.249Z,21.14
2018-06-24T02:49:20.266Z,21.13
2018-06-24T02:50:20.324Z,21.14
2018-06-24T02:51:20.382Z,21.14
2018-06-24T02:52:20.198Z,21.13
2018-06-24T02:53:20.259Z,21.13
2018-06-24T02:54:20.325Z,21.14
2018-06-24T02:55:20.202Z,21.12
2018-06-24T02:56:20.515Z,21.14
2018-06-24T02:57:20.537Z,21.15
2018-06-24T02:58:20.382Z,21.13
2018-06-24T02:59:20.236Z,21.14
2018-06-24T03:00:20.252Z,21.12
2018-06-24T03:01:20.227Z,21.13
2018-06-24T03:02:20.397Z,21.13
2018-06-24T03:03:20.334Z,21.14
2018-06-24T03:04:20.477Z,21.13
2018-06-24T03:05:20.269Z,21.12
2018-06-24T03:06:20.299Z,21.13
2018-06-24T03:07:20.264Z,21.13
2018-06-24T03:08:20.441Z,21.12
2018-06-24T03:09:20.376Z,21.13
2018-06-24T03:10:20.250Z,21.13
2018-06-24T03:11:20.317Z,21.13
2018-06-24T03:12:20.375Z,21.12
2018-06-24T03:13:20.186Z,21.12
2018-06-24T03:14:20.340Z,21.13
2018-06-24T03:15:20.402Z,21.11
2018-06-24T03:16:20.260Z,21.11
2018-06-24T03:17:20.284Z,21.11
2018-06-24T03:18:20.246Z,21.11
2018-06-24T03:19:20.117Z,21.1
2018-06-24T03:20:20.264Z,21.11
2018-06-24T03:21:20.324Z,21.11
2018-06-24T03:22:20.451Z,21.11
2018-06-24T03:23:20.476Z,21.13
2018-06-24T03:24:20.209Z,21.11
2018-06-24T03:25:20.319Z,21.1
2018-06-24T03:26:20.191Z,21.1
2018-06-24T03:27:20.378Z,21.1
2018-06-24T03:28:20.284Z,21.11
2018-06-24T03:29:20.521Z,21.1
2018-06-24T03:30:20.254Z,21.12
2018-06-24T03:31:20.233Z,21.12
2018-06-24T03:32:20.189Z,21.11
2018-06-24T03:33:20.293Z,21.11
2018-06-24T03:34:20.574Z,21.1
2018-06-24T03:35:20.370Z,21.11
2018-06-24T03:36:20.496Z,21.12
2018-06-24T03:37:20.146Z,21.1
2018-06-24T03:38:20.190Z,21.09
2018-06-24T03:39:20.224Z,21.08
2018-06-24T03:40:20.394Z,21.1
2018-06-24T03:41:20.411Z,21.09
2018-06-24T03:42:20.210Z,21.09
2018-06-24T03:43:20.414Z,21.08
2018-06-24T03:44:20.362Z,21.08
2018-06-24T03:45:20.394Z,21.1
2018-06-24T03:46:20.159Z,21.09
2018-06-24T03:47:20.191Z,21.08
2018-06-24T03:48:20.366Z,21.09
2018-06-24T03:49:20.309Z,21.07
2018-06-24T03:50:20.322Z,21.07
2018-06-24T03:51:20.530Z,21.08
2018-06-24T03:52:20.406Z,21.08
2018-06-24T03:53:20.380Z,21.08
2018-06-24T03:54:20.274Z,21.07
2018-06-24T03:55:20.172Z,21.08
2018-06-24T03:56:20.280Z,21.09
2018-06-24T03:57:20.451Z,21.08
2018-06-24T03:58:20.327Z,21.08
2018-06-24T03:59:20.553Z,21.08
2018-06-24T04:00:20.512Z,21.07
2018-06-24T04:01:20.277Z,21.07
2018-06-24T04:02:20.217Z,21.07
2018-06-24T04:03:20.283Z,21.07
2018-06-24T04:04:20.260Z,21.07
2018-06-24T04:05:20.470Z,21.09
2018-06-24T04:06:20.300Z,21.07
2018-06-24T04:07:20.525Z,21.07
2018-06-24T04:08:20.360Z,21.07
2018-06-24T04:09:20.281Z,21.09
2018-06-24T04:10:20.541Z,21.1
2018-06-24T04:11:20.440Z,21.07
2018-06-24T04:12:20.354Z,21.08
2018-06-24T04:13:20.166Z,21.07
2018-06-24T04:14:20.358Z,21.06
2018-06-24T04:15:20.208Z,21.07
2018-06-24T04:16:20.540Z,21.07
2018-06-24T04:17:20.406Z,21.05
2018-06-24T04:18:20.198Z,21.07
2018-06-24T04:19:20.377Z,21.09
2018-06-24T04:20:20.383Z,21.07
2018-06-24T04:21:20.250Z,21.07
2018-06-24T04:22:30.266Z,21.06
2018-06-24T04:23:20.403Z,21.07
2018-06-24T04:24:20.238Z,21.08
2018-06-24T04:25:20.372Z,21.07
2018-06-24T04:26:20.357Z,21.06
2018-06-24T04:27:20.232Z,21.06
2018-06-24T04:28:20.401Z,21.07
2018-06-24T04:29:20.339Z,21.06
2018-06-24T04:30:20.268Z,21.07
2018-06-24T04:31:20.213Z,21.07
2018-06-24T04:32:20.393Z,21.05
2018-06-24T04:33:20.165Z,21.07
2018-06-24T04:34:20.523Z,21.06
2018-06-24T04:35:20.322Z,21.05
2018-06-24T04:36:20.510Z,21.06
2018-06-24T04:37:20.263Z,21.08
2018-06-24T04:38:20.137Z,21.06
2018-06-24T04:39:20.471Z,21.06
2018-06-24T04:40:20.152Z,21.05
2018-06-24T04:41:20.407Z,21.05
2018-06-24T04:42:20.288Z,21.08
2018-06-24T04:43:20.347Z,21.04
2018-06-24T04:44:20.204Z,21.07
2018-06-24T04:45:20.517Z,21.07
2018-06-24T04:46:20.354Z,21.08
2018-06-24T04:47:20.321Z,21.05
2018-06-24T04:48:20.247Z,21.06
2018-06-24T04:49:20.191Z,21.06
2018-06-24T04:50:20.229Z,21.07
2018-06-24T04:51:20.439Z,21.04
2018-06-24T04:52:20.593Z,21.05
2018-06-24T04:53:20.156Z,21.05
2018-06-24T04:54:20.205Z,21.05
2018-06-24T04:55:20.264Z,21.04
2018-06-24T04:56:20.396Z,21.06
2018-06-24T04:57:20.261Z,21.06
2018-06-24T04:58:20.202Z,21.05
2018-06-24T04:59:20.346Z,21.04
2018-06-24T05:00:20.325Z,21.06
2018-06-24T05:01:20.523Z,21.06
2018-06-24T05:02:20.148Z,21.07
2018-06-24T05:03:20.323Z,21.07
2018-06-24T05:04:20.201Z,21.06
2018-06-24T05:05:20.400Z,21.05
2018-06-24T05:06:20.375Z,21.07
2018-06-24T05:07:20.333Z,21.05
2018-06-24T05:08:20.578Z,21.08
2018-06-24T05:09:20.414Z,21.07
2018-06-24T05:10:20.308Z,21.09
2018-06-24T05:11:20.177Z,21.07
2018-06-24T05:12:20.541Z,21.06
2018-06-24T05:13:20.279Z,21.05
2018-06-24T05:14:20.273Z,21.07
2018-06-24T05:15:20.404Z,21.07
2018-06-24T05:16:20.416Z,21.08
2018-06-24T05:17:20.391Z,21.06
2018-06-24T05:18:20.207Z,21.05
2018-06-24T05:19:20.143Z,21.07
2018-06-24T05:20:20.128Z,21.07
2018-06-24T05:21:20.380Z,21.07
2018-06-24T05:22:20.206Z,21.06
2018-06-24T05:23:20.248Z,21.07
2018-06-24T05:24:20.117Z,21.08
2018-06-24T05:25:20.413Z,21.07
2018-06-24T05:26:20.313Z,21.07
2018-06-24T05:27:20.367Z,21.08
2018-06-24T05:28:20.209Z,21.07
2018-06-24T05:29:20.159Z,21.08
2018-06-24T05:30:20.213Z,21.06
2018-06-24T05:31:20.356Z,21.07
2018-06-24T05:32:20.402Z,21.06
2018-06-24T05:33:20.209Z,21.06
2018-06-24T05:34:20.132Z,21.07
2018-06-24T05:35:20.271Z,21.07
2018-06-24T05:36:20.323Z,21.08
2018-06-24T05:37:20.313Z,21.08
2018-06-24T05:38:20.096Z,21.06
2018-06-24T05:39:20.297Z,21.08
2018-06-24T05:40:20.409Z,21.07
2018-06-24T05:41:20.478Z,21.04
2018-06-24T05:42:20.307Z,21.07
2018-06-24T05:43:20.227Z,21.04
2018-06-24T05:44:20.373Z,21.08
2018-06-24T05:45:20.190Z,21.08
2018-06-24T05:46:20.331Z,21.07
2018-06-24T05:47:20.177Z,21.08
2018-06-24T05:48:20.334Z,21.06
2018-06-24T05:49:20.145Z,21.07
2018-06-24T05:50:20.226Z,21.05
2018-06-24T05:51:20.281Z,21.08
2018-06-24T05:52:20.319Z,21.07
2018-06-24T05:53:20.158Z,21.05
2018-06-24T05:54:20.203Z,21.06
2018-06-24T05:55:20.593Z,21.08
2018-06-24T05:56:20.119Z,21.04
2018-06-24T05:57:20.119Z,21.04
2018-06-24T05:58:20.332Z,21.05
2018-06-24T05:59:20.306Z,21.05
2018-06-24T06:00:20.339Z,21.07
2018-06-24T06:01:20.370Z,21.08
2018-06-24T06:02:20.191Z,21.05
2018-06-24T06:03:20.309Z,21.06
2018-06-24T06:04:20.340Z,21.06
2018-06-24T06:05:20.195Z,21.06
2018-06-24T06:06:20.239Z,21.07
2018-06-24T06:07:20.372Z,21.07
2018-06-24T06:08:20.405Z,21.07
2018-06-24T06:09:20.235Z,21.09
2018-06-24T06:10:20.275Z,21.09
2018-06-24T06:11:20.364Z,21.06
2018-06-24T06:12:20.255Z,21.06
2018-06-24T06:13:20.287Z,21.08
2018-06-24T06:14:20.139Z,21.1
2018-06-24T06:15:20.150Z,21.09
2018-06-24T06:16:20.213Z,21.09
2018-06-24T06:17:20.181Z,21.06
2018-06-24T06:18:20.193Z,21.09
2018-06-24T06:19:20.345Z,21.08
2018-06-24T06:20:20.293Z,21.08
2018-06-24T06:21:20.227Z,21.08
2018-06-24T06:22:20.279Z,21.07
2018-06-24T06:23:20.156Z,21.1
2018-06-24T06:24:20.356Z,21.09
2018-06-24T06:25:20.352Z,21.07
2018-06-24T06:26:20.131Z,21.09
2018-06-24T06:27:20.201Z,21.08
2018-06-24T06:28:20.143Z,21.09
2018-06-24T06:29:20.321Z,21.07
2018-06-24T06:30:21.319Z,21.09
2018-06-24T06:31:20.134Z,21.08
2018-06-24T06:32:20.257Z,21.08
2018-06-24T06:33:20.269Z,21.08
2018-06-24T06:34:20.375Z,21.09
2018-06-24T06:35:20.212Z,21.09
2018-06-24T06:36:20.227Z,21.09
2018-06-24T06:37:20.284Z,21.08
2018-06-24T06:38:20.352Z,21.08
2018-06-24T06:39:20.285Z,21.09
2018-06-24T06:40:20.344Z,21.08
2018-06-24T06:41:20.143Z,21.09
2018-06-24T06:42:20.247Z,21.08
2018-06-24T06:43:20.220Z,21.07
2018-06-24T06:44:20.222Z,21.08
2018-06-24T06:45:20.336Z,21.08
2018-06-24T06:46:20.277Z,21.08
2018-06-24T06:47:20.225Z,21.08
2018-06-24T06:48:20.300Z,21.08
2018-06-24T06:49:20.247Z,21.08
2018-06-24T06:50:20.212Z,21.08
2018-06-24T06:51:20.220Z,21.07
2018-06-24T06:52:20.319Z,21.07
2018-06-24T06:53:20.234Z,21.07
2018-06-24T06:54:20.290Z,21.09
2018-06-24T06:55:20.358Z,21.08
2018-06-24T06:56:20.234Z,21.09
2018-06-24T06:57:20.241Z,21.09
2018-06-24T06:58:20.328Z,21.08
2018-06-24T06:59:20.254Z,21.06
2018-06-24T07:00:20.262Z,21.08
2018-06-24T07:01:20.581Z,21.08
2018-06-24T07:02:20.589Z,21.03
2018-06-24T07:03:20.520Z,21.06
2018-06-24T07:04:20.281Z,21.02
2018-06-24T07:05:20.603Z,20.95
2018-06-24T07:06:20.496Z,20.94
2018-06-24T07:07:20.364Z,20.79
2018-06-24T07:08:20.363Z,20.85
2018-06-24T07:09:20.323Z,20.93
2018-06-24T07:10:20.509Z,20.85
2018-06-24T07:11:20.339Z,20.82
2018-06-24T07:12:20.339Z,20.8
2018-06-24T07:13:20.648Z,20.81
2018-06-24T07:14:21.186Z,20.79
2018-06-24T07:15:20.363Z,20.77
2018-06-24T07:16:20.367Z,20.72
2018-06-24T07:17:20.160Z,20.76
2018-06-24T07:18:20.372Z,20.76
2018-06-24T07:19:20.380Z,20.57
2018-06-24T07:20:20.193Z,20.58
2018-06-24T07:21:20.401Z,20.55
2018-06-24T07:22:20.213Z,20.65
2018-06-24T07:23:20.509Z,20.64
2018-06-24T07:24:20.418Z,20.61
2018-06-24T07:25:20.418Z,20.49
2018-06-24T07:26:20.424Z,20.55
2018-06-24T07:27:20.426Z,20.53
2018-06-24T07:28:20.265Z,20.56
2018-06-24T07:29:20.629Z,20.46
2018-06-24T07:30:20.441Z,20.49
2018-06-24T07:31:20.236Z,20.41
2018-06-24T07:32:20.455Z,20.43
2018-06-24T07:33:20.569Z,20.46
2018-06-24T07:34:20.561Z,20.43
2018-06-24T07:35:20.271Z,20.41
2018-06-24T07:36:20.301Z,20.45
2018-06-24T07:37:20.255Z,20.49
2018-06-24T07:38:20.253Z,20.45
2018-06-24T07:39:20.389Z,20.48
2018-06-24T07:40:20.253Z,20.45
2018-06-24T07:41:20.304Z,20.43
2018-06-24T07:42:20.346Z,20.47
2018-06-24T07:43:20.336Z,20.46
2018-06-24T07:44:20.243Z,20.49
2018-06-24T07:45:20.517Z,20.48
2018-06-24T07:46:20.352Z,20.48
2018-06-24T07:47:20.362Z,20.49
2018-06-24T07:48:20.382Z,20.55
2018-06-24T07:49:20.364Z,20.51
2018-06-24T07:50:20.602Z,20.53
2018-06-24T07:51:20.564Z,20.53
2018-06-24T07:52:20.388Z,20.53
2018-06-24T07:53:20.326Z,20.52
2018-06-24T07:54:20.415Z,20.53
2018-06-24T07:55:20.409Z,20.56
2018-06-24T07:56:20.326Z,20.54
2018-06-24T07:57:20.635Z,20.56
2018-06-24T07:58:20.429Z,20.54
2018-06-24T07:59:20.276Z,20.56
2018-06-24T08:00:20.398Z,20.56
2018-06-24T08:01:20.476Z,20.6
2018-06-24T08:02:20.110Z,20.57
2018-06-24T08:03:20.201Z,20.6
2018-06-24T08:04:20.685Z,20.61
2018-06-24T08:05:20.378Z,20.56
2018-06-24T08:06:20.195Z,20.63
2018-06-24T08:07:20.411Z,20.6
2018-06-24T08:08:20.383Z,20.62
2018-06-24T08:09:20.547Z,20.6
2018-06-24T08:10:20.727Z,20.61
2018-06-24T08:11:20.157Z,20.61
2018-06-24T08:12:20.443Z,20.62
2018-06-24T08:13:20.199Z,20.6
2018-06-24T08:14:20.220Z,20.6
2018-06-24T08:15:20.449Z,20.66
2018-06-24T08:16:20.157Z,20.66
2018-06-24T08:17:20.420Z,20.65
2018-06-24T08:18:20.139Z,20.62
2018-06-24T08:19:20.431Z,20.61
2018-06-24T08:20:20.189Z,20.61
2018-06-24T08:21:20.200Z,20.61
2018-06-24T08:22:20.211Z,20.63
2018-06-24T08:23:20.197Z,20.61
2018-06-24T08:24:20.187Z,20.66
2018-06-24T08:25:20.063Z,20.65
2018-06-24T08:26:20.271Z,20.61
2018-06-24T08:27:20.434Z,20.65
2018-06-24T08:28:20.257Z,20.6
2018-06-24T08:29:20.150Z,20.62
2018-06-24T08:30:20.324Z,20.61
2018-06-24T08:31:20.238Z,20.6
2018-06-24T08:32:20.283Z,20.63
2018-06-24T08:33:20.543Z,20.67
2018-06-24T08:34:20.275Z,20.62
2018-06-24T08:35:20.251Z,20.65
2018-06-24T08:36:20.169Z,20.59
2018-06-24T08:37:20.307Z,20.6
2018-06-24T08:38:45.304Z,20.59
2018-06-24T08:39:20.569Z,20.62
2018-06-24T08:40:20.181Z,20.6
2018-06-24T08:41:20.256Z,20.59
2018-06-24T08:42:20.133Z,20.65
2018-06-24T08:43:20.457Z,20.66
2018-06-24T08:44:20.301Z,20.64
2018-06-24T08:45:20.407Z,20.63
2018-06-24T08:46:20.394Z,20.63
2018-06-24T08:47:20.360Z,20.63
2018-06-24T08:48:20.273Z,20.65
2018-06-24T08:49:20.291Z,20.62
2018-06-24T08:50:20.205Z,20.66
2018-06-24T08:51:20.347Z,20.63
2018-06-24T08:52:20.252Z,20.65
2018-06-24T08:53:20.128Z,20.63
2018-06-24T08:54:20.209Z,20.63
2018-06-24T08:55:20.489Z,20.6
2018-06-24T08:56:20.148Z,20.64
2018-06-24T08:57:20.368Z,20.62
2018-06-24T08:58:20.355Z,20.64
2018-06-24T08:59:20.181Z,20.6
2018-06-24T09:00:20.204Z,20.59
2018-06-24T09:01:20.341Z,20.6
2018-06-24T09:02:20.233Z,20.6
2018-06-24T09:03:20.398Z,20.64
2018-06-24T09:04:20.428Z,20.65
2018-06-24T09:05:20.289Z,20.66
2018-06-24T09:06:20.223Z,20.63
2018-06-24T09:07:20.354Z,20.61
2018-06-24T09:08:20.179Z,20.64
2018-06-24T09:09:20.282Z,20.62
2018-06-24T09:10:20.202Z,20.63
2018-06-24T09:11:20.197Z,20.65
2018-06-24T09:12:20.258Z,20.65
2018-06-24T09:13:20.277Z,20.66
2018-06-24T09:14:20.422Z,20.64
2018-06-24T09:15:20.150Z,20.62
2018-06-24T09:16:20.207Z,20.63
2018-06-24T09:17:20.176Z,20.66
2018-06-24T09:18:20.386Z,20.64
2018-06-24T09:19:20.187Z,20.64
2018-06-24T09:20:20.324Z,20.63
2018-06-24T09:21:20.434Z,20.63
2018-06-24T09:22:20.411Z,20.66
2018-06-24T09:23:20.266Z,20.65
2018-06-24T09:24:20.212Z,20.67
2018-06-24T09:25:20.486Z,20.66
2018-06-24T09:26:20.599Z,20.66
2018-06-24T09:27:20.346Z,20.65
2018-06-24T09:28:20.220Z,20.64
2018-06-24T09:29:20.307Z,20.65
2018-06-24T09:30:20.238Z,20.66
2018-06-24T09:31:20.256Z,20.66
2018-06-24T09:32:20.267Z,20.66
2018-06-24T09:33:20.272Z,20.67
2018-06-24T09:34:20.439Z,20.67
2018-06-24T09:35:20.315Z,20.68
2018-06-24T09:36:20.329Z,20.67
2018-06-24T09:37:20.291Z,20.68
2018-06-24T09:38:20.387Z,20.66
2018-06-24T09:39:20.342Z,20.68
2018-06-24T09:40:20.311Z,20.7
2018-06-24T09:41:20.353Z,20.75
2018-06-24T09:42:20.395Z,20.74
2018-06-24T09:43:20.483Z,20.77
2018-06-24T09:44:20.128Z,20.78
2018-06-24T09:45:20.342Z,20.8
2018-06-24T09:46:20.458Z,20.8
2018-06-24T09:47:20.360Z,20.84
2018-06-24T09:48:20.365Z,20.84
2018-06-24T09:49:20.371Z,20.86
2018-06-24T09:50:20.358Z,20.88
2018-06-24T09:51:20.402Z,20.89
2018-06-24T09:52:20.212Z,20.89
2018-06-24T09:53:20.378Z,20.9
2018-06-24T09:54:20.387Z,20.91
2018-06-24T09:55:20.561Z,20.93
2018-06-24T09:56:20.503Z,20.94
2018-06-24T09:57:20.424Z,20.95
2018-06-24T09:58:20.421Z,20.95
2018-06-24T09:59:20.438Z,20.95
2018-06-24T10:00:20.436Z,20.96
2018-06-24T10:01:20.236Z,20.97
2018-06-24T10:02:20.460Z,20.97
2018-06-24T10:03:20.244Z,20.99
2018-06-24T10:04:20.215Z,20.99
2018-06-24T10:05:20.471Z,21
2018-06-24T10:06:20.487Z,20.99
2018-06-24T10:07:20.205Z,20.99
2018-06-24T10:08:20.319Z,21.01
2018-06-24T10:09:20.282Z,21.04
2018-06-24T10:10:20.327Z,21.04
2018-06-24T10:11:20.255Z,21.03
2018-06-24T10:12:20.238Z,21.05
2018-06-24T10:13:20.245Z,21.07
2018-06-24T10:14:20.357Z,21.06
2018-06-24T10:15:20.259Z,21.07
2018-06-24T10:16:20.285Z,21.09
2018-06-24T10:17:20.351Z,21.09
2018-06-24T10:18:20.331Z,21.11
2018-06-24T10:19:20.609Z,21.13
2018-06-24T10:20:21.173Z,21.12
2018-06-24T10:21:20.013Z,21.13
2018-06-24T10:22:20.341Z,21.12
2018-06-24T10:23:20.307Z,21.15
2018-06-24T10:24:20.334Z,21.13
2018-06-24T10:25:20.627Z,21.14
2018-06-24T10:26:20.255Z,21.14
2018-06-24T10:27:20.388Z,21.14
2018-06-24T10:28:20.383Z,21.14
2018-06-24T10:29:20.361Z,21.16
2018-06-24T10:30:20.057Z,21.14
2018-06-24T10:31:20.410Z,21.16
2018-06-24T10:32:20.665Z,21.17
2018-06-24T10:33:20.390Z,21.18
2018-06-24T10:34:20.371Z,21.16
2018-06-24T10:35:20.685Z,21.18
2018-06-24T10:36:20.345Z,21.18
2018-06-24T10:37:20.130Z,21.18
2018-06-24T10:38:20.422Z,21.19
2018-06-24T10:39:20.104Z,21.18
2018-06-24T10:40:20.296Z,21.2
2018-06-24T10:41:20.090Z,21.2
2018-06-24T10:42:20.154Z,21.2
2018-06-24T10:43:20.727Z,21.22
2018-06-24T10:44:20.097Z,21.2
2018-06-24T10:45:20.440Z,21.2
2018-06-24T10:46:20.411Z,21.21
2018-06-24T10:47:20.455Z,21.22
2018-06-24T10:48:20.186Z,21.22
2018-06-24T10:49:20.173Z,21.23
2018-06-24T10:50:20.059Z,21.24
2018-06-24T10:51:20.410Z,21.22
2018-06-24T10:52:20.120Z,21.25
2018-06-24T10:53:20.328Z,21.26
2018-06-24T10:54:20.244Z,21.26
2018-06-24T10:55:20.433Z,21.26
2018-06-24T10:56:20.135Z,21.27
2018-06-24T10:57:20.233Z,21.27
2018-06-24T10:58:20.495Z,21.27
2018-06-24T10:59:20.007Z,21.29
2018-06-24T11:00:20.089Z,21.29
2018-06-24T11:01:20.214Z,21.31
2018-06-24T11:02:20.414Z,21.28
2018-06-24T11:03:20.461Z,21.29
2018-06-24T11:04:20.214Z,21.3
2018-06-24T11:05:20.066Z,21.31
2018-06-24T11:06:20.221Z,21.3
2018-06-24T11:07:20.413Z,21.31
2018-06-24T11:08:20.082Z,21.32
2018-06-24T11:09:20.178Z,21.3
2018-06-24T11:10:20.241Z,21.32
2018-06-24T11:11:20.341Z,21.32
2018-06-24T11:12:20.301Z,21.32
2018-06-24T11:13:20.439Z,21.35
2018-06-24T11:14:20.214Z,21.34
2018-06-24T11:15:20.252Z,21.34
2018-06-24T11:16:20.117Z,21.35
2018-06-24T11:17:20.075Z,21.36
2018-06-24T11:18:20.257Z,21.34
2018-06-24T11:19:20.167Z,21.34
2018-06-24T11:20:20.045Z,21.34
2018-06-24T11:21:20.096Z,21.34
2018-06-24T11:22:20.173Z,21.35
2018-06-24T11:23:20.218Z,21.36
2018-06-24T11:24:20.269Z,21.36
2018-06-24T11:25:20.192Z,21.37
2018-06-24T11:26:20.037Z,21.36
2018-06-24T11:27:20.165Z,21.35
2018-06-24T11:28:20.186Z,21.37
2018-06-24T11:29:20.082Z,21.39
2018-06-24T11:30:20.231Z,21.37
2018-06-24T11:31:20.029Z,21.36
2018-06-24T11:32:20.249Z,21.37
2018-06-24T11:33:20.249Z,21.37
2018-06-24T11:34:20.164Z,21.37
2018-06-24T11:35:20.055Z,21.35
2018-06-24T11:36:20.293Z,21.35
2018-06-24T11:37:20.326Z,21.36
2018-06-24T11:38:20.653Z,21.34
2018-06-24T11:39:20.267Z,21.35
2018-06-24T11:40:20.323Z,21.34
2018-06-24T11:41:20.396Z,21.34
2018-06-24T11:42:20.267Z,21.35
2018-06-24T11:43:20.249Z,21.33
2018-06-24T11:44:20.040Z,21.32
2018-06-24T11:45:20.298Z,21.32
2018-06-24T11:46:20.264Z,21.32
2018-06-24T11:47:20.296Z,21.32
2018-06-24T11:48:20.126Z,21.31
2018-06-24T11:49:20.358Z,21.31
2018-06-24T11:50:20.328Z,21.31
2018-06-24T11:51:20.523Z,21.3
2018-06-24T11:52:20.347Z,21.3
2018-06-24T11:53:20.140Z,21.32
2018-06-24T11:54:20.318Z,21.31
2018-06-24T11:55:20.151Z,21.32
2018-06-24T11:56:20.303Z,21.31
2018-06-24T11:57:20.214Z,21.29
2018-06-24T11:58:20.283Z,21.31
2018-06-24T11:59:20.192Z,21.31
2018-06-24T12:00:20.220Z,21.31
2018-06-24T12:01:20.258Z,21.29
2018-06-24T12:02:20.211Z,21.3
2018-06-24T12:03:20.324Z,21.29
2018-06-24T12:04:20.051Z,21.28
2018-06-24T12:05:20.417Z,21.27
2018-06-24T12:06:20.212Z,21.27
2018-06-24T12:07:20.063Z,21.26
2018-06-24T12:08:20.259Z,21.25
2018-06-24T12:09:20.255Z,21.27
2018-06-24T12:10:20.257Z,21.28
2018-06-24T12:11:20.264Z,21.28
2018-06-24T12:12:20.067Z,21.3
2018-06-24T12:13:20.097Z,21.3
2018-06-24T12:14:20.063Z,21.36
2018-06-24T12:15:20.462Z,21.36
2018-06-24T12:16:20.288Z,21.37
2018-06-24T12:17:20.293Z,21.36
2018-06-24T12:18:20.425Z,21.37
2018-06-24T12:19:20.308Z,21.37
2018-06-24T12:20:20.064Z,21.37
2018-06-24T12:21:20.319Z,21.36
2018-06-24T12:22:20.094Z,21.38
2018-06-24T12:23:20.336Z,21.38
2018-06-24T12:24:20.164Z,21.4
2018-06-24T12:25:20.202Z,21.4
2018-06-24T12:26:20.258Z,21.39
2018-06-24T12:27:20.114Z,21.38
2018-06-24T12:28:20.351Z,21.4
2018-06-24T12:29:20.219Z,21.4
2018-06-24T12:30:20.081Z,21.37
2018-06-24T12:31:20.032Z,21.38
2018-06-24T12:32:20.293Z,21.41
2018-06-24T12:33:20.101Z,21.41
2018-06-24T12:34:20.067Z,21.41
2018-06-24T12:35:20.246Z,21.42
2018-06-24T12:36:20.256Z,21.42
2018-06-24T12:37:20.014Z,21.42
2018-06-24T12:38:20.252Z,21.42
2018-06-24T12:39:20.058Z,21.38
2018-06-24T12:40:20.025Z,21.41
2018-06-24T12:41:20.147Z,21.41
2018-06-24T12:42:20.222Z,21.42
2018-06-24T12:43:20.285Z,21.44
2018-06-24T12:44:20.212Z,21.42
2018-06-24T12:45:20.172Z,21.44
2018-06-24T12:46:20.304Z,21.46
2018-06-24T12:47:20.185Z,21.47
2018-06-24T12:48:20.091Z,21.46
2018-06-24T12:49:20.012Z,21.48
2018-06-24T12:50:20.244Z,21.48
2018-06-24T12:51:20.268Z,21.48
2018-06-24T12:52:20.196Z,21.48
2018-06-24T12:53:20.146Z,21.47
2018-06-24T12:54:20.345Z,21.49